Almeria, Spain

4:50 PM CEST on September 02, 2015 (GMT +0200)
Almeria, Los Molinos | | Change Station
CLOSE
Current Station
Personal Weather Station
Location: Almería, ANDALUCíA
Elevation: 112 ft
Nearby Weather Stations

Elev 112 ft 36.85 °N, 2.44 °W | Updated 20 seconds ago

Clear
Clear
84.7 °F
Feels Like 85 °F
N
16.0
Wind Variable Wind from SSW
Gusts 17.0 mph

Today
High -- | Low -- °F
--% Chance of Precip.
Yesterday
High -- | Low -- °F
Precip. -- in
7:40 AM 8:37 PM
Waning Gibbous, 80% visible
Pressure 29.89 in
Visibility -9999.0 miles
Clouds
Heat Index 85 °F
Dew Point 60 °F
Humidity 43%
Rainfall 0.00 in
Snow Depth Not available.
UV Not available.
Pollen Not available.
Air Quality Not available.
Flu Activity Not available.
METAR LEAM 021430Z 20010KT 170V250 CAVOK 29/20 Q1012
Pressure 29.89 in
Visibility -9999.0 miles
Clouds
Heat Index 85 °F
Dew Point 60 °F
Humidity 43%
Rainfall 0.00 in
Snow Depth Not available.
UV Not available.
Pollen Not available.
Air Quality Not available.
Flu Activity Not available.
METAR LEAM 021430Z 20010KT 170V250 CAVOK 29/20 Q1012

10-Day Weather Forecast

×

Almanac

Astronomy

Sep. 02, 2015 Rise Set
Actual Time
Civil Twilight
Nautical Twilight
Astronomical Twilight
Moon
Length of Visible Light
Length of Day
Tomorrow will be .
, % of the Moon is Illuminated

Today's Extremes

Country Highs Country Lows

Community

WunderPhotos

Upload Photos

1,851,763 photos uploaded!

WunderBlogs® & News

Nearby

Air Quality

  Air Quality AQ Index Pollutant
Not available.

Snow Depth

Station Depth Elevation

Earthquake Activity

City Distance Mag. Time & Date
Minimum magnitude displayed is 2.5.

Coastal Water Temperatures

Place Temperature

Stations

Nearby Weather Stations

Station Location Temp. Windchill Dew Point Humidity Wind Precip. Elev Updated Type